Rode Zora V. Amsterd — DIPU2 — position and weather

sailwx.info

Track history (hours):
 
Tides and Currents Weather Stations Pressure Air Temp Water Temp Dewpoint Dewpoint Depression Visibility Wind Speed Wind Dir Waves Ship Positions

Rode Zora V. Amsterd

Last reported at 2018-Jun-29 19:49 UTC. Time now 2018-Jul-15 20:47 UTC.
Position N 53°35' E 009°41'.
Warning: this ship's position is 16 days out of date.

Length 12 m.

Type: Sailing vessel. MMSI: 211658760.

Date/timePositionNaut miles runAvg speedWind from/ knotsBaromVisibWave heightAir tempDewpointWater temp
2018-Jun-29 19:49N 53°35' E 009°41'0 0.0
2018-Jun-29 19:25N 53°35' E 009°41'0 0.0
2018-Jun-29 18:55N 53°35' E 009°41'0 0.0
2018-Jun-29 18:25N 53°35' E 009°41'0 0.0
2018-Jun-29 17:55N 53°35' E 009°41'0 0.0
2018-Jun-29 17:25N 53°35' E 009°41'0 0.0
2018-Jun-29 16:55N 53°35' E 009°41'0 0.2
2018-Jun-29 16:30N 53°34' E 009°40'1 2.9
2018-Jun-29 16:00N 53°35' E 009°38'3 5.7
2018-Jun-29 15:30N 53°37' E 009°34'3 6.1
2018-Jun-29 15:00N 53°39' E 009°31'4 7.0
2018-Jun-29 14:30N 53°42' E 009°29'3 5.1
2018-Jun-29 14:00N 53°44' E 009°26'3 5.5
2018-Jun-29 13:30N 53°47' E 009°25'0 0.5
2018-Jun-29 13:00N 53°47' E 009°25'3 6.1
2018-Jun-29 12:30N 53°49' E 009°21'3 6.5
2018-Jun-29 11:58N 53°52' E 009°17'3 6.2
2018-Jun-29 11:30N 53°53' E 009°12'2 4.4
2018-Jun-29 11:00N 53°53' E 009°09'0 0.5
2018-Jun-29 10:25N 53°54' E 009°09'0 0.1
2018-Jun-29 09:55N 53°54' E 009°09'0 0.4
2018-Jun-29 09:22N 53°54' E 009°09'0 0.0
2018-Jun-29 08:58N 53°54' E 009°09'0 0.0
2018-Jun-29 08:25N 53°54' E 009°09'0 0.0
2018-Jun-29 07:58N 53°54' E 009°09'0 0.0
2018-Jun-29 07:28N 53°54' E 009°09'0 0.0
2018-Jun-29 06:55N 53°54' E 009°09'0 0.0
2018-Jun-29 06:22N 53°54' E 009°09'0 0.0
2018-Jun-29 05:58N 53°54' E 009°09'0 0.0
2018-Jun-29 05:22N 53°54' E 009°09'0 0.0
2018-Jun-29 04:49N 53°54' E 009°09'0 0.0
2018-Jun-29 04:25N 53°54' E 009°09'0 0.0
2018-Jun-29 03:58N 53°54' E 009°09'0 0.0
2018-Jun-29 03:28N 53°54' E 009°09'0 0.0
2018-Jun-29 02:52N 53°54' E 009°09'0 0.0
2018-Jun-29 02:22N 53°54' E 009°09'0 0.0
2018-Jun-29 01:55N 53°54' E 009°09'0 0.0
2018-Jun-29 01:28N 53°54' E 009°09'0 0.0
2018-Jun-29 00:58N 53°54' E 009°09'0 0.0
2018-Jun-29 00:28N 53°54' E 009°09'0 0.0
2018-Jun-28 23:49N 53°54' E 009°09'0 0.0
2018-Jun-28 23:28N 53°54' E 009°09'0 0.0
2018-Jun-28 22:58N 53°54' E 009°09'0 0.0
2018-Jun-28 22:28N 53°54' E 009°09'0 0.0
2018-Jun-28 21:25N 53°54' E 009°09'0 0.0
2018-Jun-28 20:52N 53°54' E 009°09'0 0.0
2018-Jun-28 20:28N 53°54' E 009°09'0 0.0
2018-Jun-28 19:58N 53°54' E 009°09'0 0.0
2018-Jun-28 19:28N 53°54' E 009°09'0 0.0
2018-Jun-28 18:37N 53°54' E 009°09'0 0.0
2018-Jun-28 18:07N 53°54' E 009°09'0 0.0
2018-Jun-28 17:55N 53°54' E 009°09'0 0.0
2018-Jun-28 17:25N 53°54' E 009°09'0 0.5
2018-Jun-28 16:56N 53°54' E 009°09'1 2.4
2018-Jun-28 16:30N 53°53' E 009°07'1 2.0
2018-Jun-28 15:59N 53°53' E 009°05'2 3.6
2018-Jun-28 15:26N 53°52' E 009°02'2 4.4
2018-Jun-28 14:56N 53°51' E 008°59'3 6.2
2018-Jun-28 14:30N 53°51' E 008°54'3 5.7
2018-Jun-28 14:00N 53°51' E 008°50'3 5.1
2018-Jun-28 13:29N 53°51' E 008°45'3 6.0
2018-Jun-28 12:58N 53°54' E 008°42'5 6.5
2018-Jun-28 12:13N 53°58' E 008°37'2 6.4
2018-Jun-28 11:55N 53°58' E 008°34'9 5.4
2018-Jun-28 10:15N 54°01' E 008°19'11 4.7
2018-Jun-28 07:59N 54°06' E 008°04'2 4.0
2018-Jun-28 07:24N 54°07' E 008°00'5 4.5
2018-Jun-28 06:21N 54°10' E 007°54'  
2018-Jun-25 04:16N 53°31' E 005°22'3 7.5
2018-Jun-25 03:52N 53°30' E 005°17'3 7.6
2018-Jun-25 03:29N 53°30' E 005°13'3 6.3
2018-Jun-25 03:00N 53°27' E 005°09'3 5.7
2018-Jun-25 02:30N 53°25' E 005°06'3 5.7
2018-Jun-25 02:00N 53°23' E 005°03'3 6.0
2018-Jun-25 01:29N 53°22' E 004°58'3 5.6
2018-Jun-25 00:56N 53°20' E 004°54'7 4.9
2018-Jun-24 23:25N 53°14' E 004°46'9 4.2
2018-Jun-24 21:22N 53°08' E 004°36'2 3.6
2018-Jun-24 20:52N 53°07' E 004°34'1 3.6
2018-Jun-24 20:30N 53°06' E 004°32'2 2.5
2018-Jun-24 19:54N 53°05' E 004°31'2 5.3
2018-Jun-24 19:30N 53°04' E 004°34'3 5.6
2018-Jun-24 19:00N 53°04' E 004°39'1 2.5
2018-Jun-24 18:30N 53°03' E 004°38'2 4.8
2018-Jun-24 18:00N 53°01' E 004°36'3 5.4
2018-Jun-24 17:29N 52°60' E 004°32'3 5.6
2018-Jun-24 16:59N 52°58' E 004°28'3 5.8
2018-Jun-24 16:26N 52°56' E 004°24'3 6.2
2018-Jun-24 15:58N 52°53' E 004°21'71 4.7
2018-Jun-24 01:01N 52°09' E 002°50'1 6.1
2018-Jun-24 00:56N 52°09' E 002°50'3 6.0
2018-Jun-24 00:29N 52°07' E 002°47'3 6.5
2018-Jun-23 23:59N 52°04' E 002°44'3 6.2
2018-Jun-23 23:30N 52°02' E 002°41'14 5.8
2018-Jun-23 21:01N 51°51' E 002°26'0 5.1
2018-Jun-23 20:58N 51°51' E 002°25'3 4.7
2018-Jun-23 20:24N 51°49' E 002°23'6 3.6
2018-Jun-23 18:50N 51°45' E 002°17'1 2.6
2018-Jun-23 18:30N 51°44' E 002°16'1 2.2
2018-Jun-23 17:59N 51°43' E 002°15'1 1.9
2018-Jun-23 17:30N 51°42' E 002°14'1 2.1
2018-Jun-23 17:00N 51°41' E 002°13'1 2.4
2018-Jun-23 16:30N 51°41' E 002°11'1 2.6
2018-Jun-23 16:00N 51°40' E 002°10'1 2.9
2018-Jun-23 15:30N 51°39' E 002°08'2 3.4
2018-Jun-23 15:00N 51°37' E 002°07'1 2.7
2018-Jun-23 14:30N 51°36' E 002°05'1 2.8
2018-Jun-23 13:59N 51°35' E 002°04'1 2.8
2018-Jun-23 13:30N 51°34' E 002°03'2 3.4
2018-Jun-23 12:59N 51°33' E 002°00'2 3.8
2018-Jun-23 12:30N 51°32' E 001°58'2 4.4
2018-Jun-23 11:59N 51°30' E 001°56'2 4.9
2018-Jun-23 11:30N 51°28' E 001°53'2 4.9
2018-Jun-23 11:00N 51°27' E 001°50'2 4.7
2018-Jun-23 10:30N 51°25' E 001°48'2 4.8
2018-Jun-23 10:00N 51°23' E 001°45'3 6.1
2018-Jun-23 09:30N 51°21' E 001°42'3 6.4
2018-Jun-23 09:00N 51°18' E 001°39'3 6.3
2018-Jun-23 08:30N 51°15' E 001°37'3 6.2
2018-Jun-23 08:00N 51°13' E 001°34'2 4.7
2018-Jun-23 07:30N 51°11' E 001°32'3 5.3
2018-Jun-23 07:00N 51°09' E 001°30'2 4.3
2018-Jun-23 06:30N 51°08' E 001°27'2 4.6
2018-Jun-23 06:00N 51°08' E 001°23'2 3.2
2018-Jun-23 05:22N 51°07' E 001°20'1 1.3
2018-Jun-23 04:43N 51°07' E 001°19'1 0.0
2018-Jun-21 19:46N 51°07' E 001°20'1 3.0
2018-Jun-21 19:30N 51°06' E 001°20'3 5.8
2018-Jun-21 19:00N 51°03' E 001°18'22 3.2
2018-Jun-21 12:11N 50°51' E 000°49'1 4.6
2018-Jun-21 12:00N 50°50' E 000°48'2 3.5
2018-Jun-21 11:30N 50°50' E 000°45'1 1.2
2018-Jun-21 10:56N 50°49' E 000°44'1 1.5
2018-Jun-21 10:30N 50°49' E 000°43'2 3.7
2018-Jun-21 09:59N 50°48' E 000°41'2 3.1
2018-Jun-21 09:31N 50°48' E 000°38'2 4.6
2018-Jun-21 09:01N 50°47' E 000°35'3 5.3
2018-Jun-21 08:31N 50°46' E 000°31'3 5.1
2018-Jun-21 08:01N 50°45' E 000°28'2 4.6
2018-Jun-21 07:30N 50°44' E 000°24'2 4.7
2018-Jun-21 07:01N 50°43' E 000°21'3 5.0
2018-Jun-21 06:31N 50°42' E 000°17'3 4.2
2018-Jun-21 05:50N 50°42' E 000°13'2 4.7
2018-Jun-21 05:30N 50°41' E 000°10'3 5.9
2018-Jun-21 05:01N 50°40' E 000°06'20 7.2
2018-Jun-21 02:18N 50°37' W 000°24'2 8.2
2018-Jun-21 02:00N 50°38' W 000°28'4 8.0
2018-Jun-21 01:29N 50°38' W 000°35'3 6.2
2018-Jun-21 00:59N 50°39' W 000°39'4 8.0
2018-Jun-21 00:28N 50°39' W 000°46'4 7.0
2018-Jun-20 23:58N 50°41' W 000°51'3 6.1
2018-Jun-20 23:31N 50°42' W 000°55'3 4.9
2018-Jun-20 23:00N 50°43' W 000°59'2 5.1
2018-Jun-20 22:31N 50°44' W 001°02'3 5.1
2018-Jun-20 22:00N 50°45' W 001°06'3 5.1
2018-Jun-20 21:30N 50°45' W 001°10'2 4.1
2018-Jun-20 21:01N 50°46' W 001°13'2 3.5
2018-Jun-20 20:29N 50°46' W 001°16'1 2.9
2018-Jun-20 20:00N 50°46' W 001°18'1 1.0
2018-Jun-20 19:28N 50°46' W 001°18'0 0.0
2018-Jun-20 18:55N 50°46' W 001°18'0 0.0
2018-Jun-20 18:28N 50°46' W 001°18'0 0.0
2018-Jun-20 17:58N 50°46' W 001°18'0 0.0
2018-Jun-20 17:28N 50°46' W 001°18'0 0.0
2018-Jun-20 16:58N 50°46' W 001°18'0 0.0
2018-Jun-20 16:25N 50°46' W 001°18'0 0.0
2018-Jun-20 15:58N 50°46' W 001°18'0 0.0
2018-Jun-20 15:28N 50°46' W 001°18'0 0.0
2018-Jun-20 14:58N 50°46' W 001°18'0 0.0
2018-Jun-20 14:28N 50°46' W 001°18'0 0.0
2018-Jun-20 13:58N 50°46' W 001°18'0 0.0
2018-Jun-20 13:28N 50°46' W 001°18'0 0.0
2018-Jun-20 12:58N 50°46' W 001°18'0 0.0
2018-Jun-20 12:28N 50°46' W 001°18'0 0.0
2018-Jun-20 11:58N 50°46' W 001°18'0 0.0
2018-Jun-20 11:28N 50°46' W 001°18'0 0.0
2018-Jun-20 10:58N 50°46' W 001°18'0 0.0
2018-Jun-20 10:28N 50°46' W 001°18'0 0.0
2018-Jun-20 09:58N 50°46' W 001°18'0 0.0
2018-Jun-20 09:28N 50°46' W 001°18'0 0.0
2018-Jun-20 08:58N 50°46' W 001°18'0 0.0
2018-Jun-20 08:28N 50°46' W 001°18'0 0.0
2018-Jun-20 07:58N 50°46' W 001°18'0 0.0
2018-Jun-20 07:28N 50°46' W 001°18'0 0.0
2018-Jun-20 06:58N 50°46' W 001°18'0 0.0
2018-Jun-20 06:28N 50°46' W 001°18'0 0.0
2018-Jun-20 05:58N 50°46' W 001°18'0 0.0
2018-Jun-20 05:28N 50°46' W 001°18'0 0.0
2018-Jun-20 04:58N 50°46' W 001°18'0 0.0
2018-Jun-20 04:28N 50°46' W 001°18'0 0.0
2018-Jun-20 03:58N 50°46' W 001°18'0 0.0
2018-Jun-20 03:28N 50°46' W 001°18'0 0.0
2018-Jun-20 02:58N 50°46' W 001°18'0 0.0
2018-Jun-20 02:28N 50°46' W 001°18'0 0.0
2018-Jun-20 01:58N 50°46' W 001°18'0 0.0
2018-Jun-20 01:28N 50°46' W 001°18'0 0.0
2018-Jun-20 00:58N 50°46' W 001°18'0 0.0
2018-Jun-20 00:28N 50°46' W 001°18'0 0.0
2018-Jun-19 23:58N 50°46' W 001°18'0 0.0
2018-Jun-19 23:28N 50°46' W 001°18'0 0.0
2018-Jun-19 22:58N 50°46' W 001°18'0 0.0
2018-Jun-19 22:28N 50°46' W 001°18'0 0.0
2018-Jun-19 21:58N 50°46' W 001°18'0 0.0
2018-Jun-19 21:28N 50°46' W 001°18'0 0.0
2018-Jun-19 20:58N 50°46' W 001°18'0 0.0
2018-Jun-19 20:28N 50°46' W 001°18'0 0.0
2018-Jun-19 19:58N 50°46' W 001°18'  
Track history (hours):
 
Tides and Currents Weather Stations Pressure Air Temp Water Temp Dewpoint Dewpoint Depression Visibility Wind Speed Wind Dir Waves Ship Positions

Rode Zora V. Amsterd

Last reported at 2018-Jun-29 19:49 UTC. Time now 2018-Jul-15 20:47 UTC.
Position N 53°35' E 009°41'.
Warning: this ship's position is 16 days out of date.

Length 12 m.

Type: Sailing vessel. MMSI: 211658760.

Date/timePositionNaut miles runAvg speedWind from/ knotsBaromVisibWave heightAir tempDewpointWater temp
2018-Jun-29 19:49N 53°35' E 009°41'0 0.0
2018-Jun-29 19:25N 53°35' E 009°41'0 0.0
2018-Jun-29 18:55N 53°35' E 009°41'0 0.0
2018-Jun-29 18:25N 53°35' E 009°41'0 0.0
2018-Jun-29 17:55N 53°35' E 009°41'0 0.0
2018-Jun-29 17:25N 53°35' E 009°41'0 0.0
2018-Jun-29 16:55N 53°35' E 009°41'0 0.2
2018-Jun-29 16:30N 53°34' E 009°40'1 2.9
2018-Jun-29 16:00N 53°35' E 009°38'3 5.7
2018-Jun-29 15:30N 53°37' E 009°34'3 6.1
2018-Jun-29 15:00N 53°39' E 009°31'4 7.0
2018-Jun-29 14:30N 53°42' E 009°29'3 5.1
2018-Jun-29 14:00N 53°44' E 009°26'3 5.5
2018-Jun-29 13:30N 53°47' E 009°25'0 0.5
2018-Jun-29 13:00N 53°47' E 009°25'3 6.1
2018-Jun-29 12:30N 53°49' E 009°21'3 6.5
2018-Jun-29 11:58N 53°52' E 009°17'3 6.2
2018-Jun-29 11:30N 53°53' E 009°12'2 4.4
2018-Jun-29 11:00N 53°53' E 009°09'0 0.5
2018-Jun-29 10:25N 53°54' E 009°09'0 0.1
2018-Jun-29 09:55N 53°54' E 009°09'0 0.4
2018-Jun-29 09:22N 53°54' E 009°09'0 0.0
2018-Jun-29 08:58N 53°54' E 009°09'0 0.0
2018-Jun-29 08:25N 53°54' E 009°09'0 0.0
2018-Jun-29 07:58N 53°54' E 009°09'0 0.0
2018-Jun-29 07:28N 53°54' E 009°09'0 0.0
2018-Jun-29 06:55N 53°54' E 009°09'0 0.0
2018-Jun-29 06:22N 53°54' E 009°09'0 0.0
2018-Jun-29 05:58N 53°54' E 009°09'0 0.0
2018-Jun-29 05:22N 53°54' E 009°09'0 0.0
2018-Jun-29 04:49N 53°54' E 009°09'0 0.0
2018-Jun-29 04:25N 53°54' E 009°09'0 0.0
2018-Jun-29 03:58N 53°54' E 009°09'0 0.0
2018-Jun-29 03:28N 53°54' E 009°09'0 0.0
2018-Jun-29 02:52N 53°54' E 009°09'0 0.0
2018-Jun-29 02:22N 53°54' E 009°09'0 0.0
2018-Jun-29 01:55N 53°54' E 009°09'0 0.0
2018-Jun-29 01:28N 53°54' E 009°09'0 0.0
2018-Jun-29 00:58N 53°54' E 009°09'0 0.0
2018-Jun-29 00:28N 53°54' E 009°09'0 0.0
2018-Jun-28 23:49N 53°54' E 009°09'0 0.0
2018-Jun-28 23:28N 53°54' E 009°09'0 0.0
2018-Jun-28 22:58N 53°54' E 009°09'0 0.0
2018-Jun-28 22:28N 53°54' E 009°09'0 0.0
2018-Jun-28 21:25N 53°54' E 009°09'0 0.0
2018-Jun-28 20:52N 53°54' E 009°09'0 0.0
2018-Jun-28 20:28N 53°54' E 009°09'0 0.0
2018-Jun-28 19:58N 53°54' E 009°09'0 0.0
2018-Jun-28 19:28N 53°54' E 009°09'0 0.0
2018-Jun-28 18:37N 53°54' E 009°09'0 0.0
2018-Jun-28 18:07N 53°54' E 009°09'0 0.0
2018-Jun-28 17:55N 53°54' E 009°09'0 0.0
2018-Jun-28 17:25N 53°54' E 009°09'0 0.5
2018-Jun-28 16:56N 53°54' E 009°09'1 2.4
2018-Jun-28 16:30N 53°53' E 009°07'1 2.0
2018-Jun-28 15:59N 53°53' E 009°05'2 3.6
2018-Jun-28 15:26N 53°52' E 009°02'2 4.4
2018-Jun-28 14:56N 53°51' E 008°59'3 6.2
2018-Jun-28 14:30N 53°51' E 008°54'3 5.7
2018-Jun-28 14:00N 53°51' E 008°50'3 5.1
2018-Jun-28 13:29N 53°51' E 008°45'3 6.0
2018-Jun-28 12:58N 53°54' E 008°42'5 6.5
2018-Jun-28 12:13N 53°58' E 008°37'2 6.4
2018-Jun-28 11:55N 53°58' E 008°34'9 5.4
2018-Jun-28 10:15N 54°01' E 008°19'11 4.7
2018-Jun-28 07:59N 54°06' E 008°04'2 4.0
2018-Jun-28 07:24N 54°07' E 008°00'5 4.5
2018-Jun-28 06:21N 54°10' E 007°54'  
2018-Jun-25 04:16N 53°31' E 005°22'3 7.5
2018-Jun-25 03:52N 53°30' E 005°17'3 7.6
2018-Jun-25 03:29N 53°30' E 005°13'3 6.3
2018-Jun-25 03:00N 53°27' E 005°09'3 5.7
2018-Jun-25 02:30N 53°25' E 005°06'3 5.7
2018-Jun-25 02:00N 53°23' E 005°03'3 6.0
2018-Jun-25 01:29N 53°22' E 004°58'3 5.6
2018-Jun-25 00:56N 53°20' E 004°54'7 4.9
2018-Jun-24 23:25N 53°14' E 004°46'9 4.2
2018-Jun-24 21:22N 53°08' E 004°36'2 3.6
2018-Jun-24 20:52N 53°07' E 004°34'1 3.6
2018-Jun-24 20:30N 53°06' E 004°32'2 2.5
2018-Jun-24 19:54N 53°05' E 004°31'2 5.3
2018-Jun-24 19:30N 53°04' E 004°34'3 5.6
2018-Jun-24 19:00N 53°04' E 004°39'1 2.5
2018-Jun-24 18:30N 53°03' E 004°38'2 4.8
2018-Jun-24 18:00N 53°01' E 004°36'3 5.4
2018-Jun-24 17:29N 52°60' E 004°32'3 5.6
2018-Jun-24 16:59N 52°58' E 004°28'3 5.8
2018-Jun-24 16:26N 52°56' E 004°24'3 6.2
2018-Jun-24 15:58N 52°53' E 004°21'71 4.7
2018-Jun-24 01:01N 52°09' E 002°50'1 6.1
2018-Jun-24 00:56N 52°09' E 002°50'3 6.0
2018-Jun-24 00:29N 52°07' E 002°47'3 6.5
2018-Jun-23 23:59N 52°04' E 002°44'3 6.2
2018-Jun-23 23:30N 52°02' E 002°41'14 5.8
2018-Jun-23 21:01N 51°51' E 002°26'0 5.1
2018-Jun-23 20:58N 51°51' E 002°25'3 4.7
2018-Jun-23 20:24N 51°49' E 002°23'6 3.6
2018-Jun-23 18:50N 51°45' E 002°17'1 2.6
2018-Jun-23 18:30N 51°44' E 002°16'1 2.2
2018-Jun-23 17:59N 51°43' E 002°15'1 1.9
2018-Jun-23 17:30N 51°42' E 002°14'1 2.1
2018-Jun-23 17:00N 51°41' E 002°13'1 2.4
2018-Jun-23 16:30N 51°41' E 002°11'1 2.6
2018-Jun-23 16:00N 51°40' E 002°10'1 2.9
2018-Jun-23 15:30N 51°39' E 002°08'2 3.4
2018-Jun-23 15:00N 51°37' E 002°07'1 2.7
2018-Jun-23 14:30N 51°36' E 002°05'1 2.8
2018-Jun-23 13:59N 51°35' E 002°04'1 2.8
2018-Jun-23 13:30N 51°34' E 002°03'2 3.4
2018-Jun-23 12:59N 51°33' E 002°00'2 3.8
2018-Jun-23 12:30N 51°32' E 001°58'2 4.4
2018-Jun-23 11:59N 51°30' E 001°56'2 4.9
2018-Jun-23 11:30N 51°28' E 001°53'2 4.9
2018-Jun-23 11:00N 51°27' E 001°50'2 4.7
2018-Jun-23 10:30N 51°25' E 001°48'2 4.8
2018-Jun-23 10:00N 51°23' E 001°45'3 6.1
2018-Jun-23 09:30N 51°21' E 001°42'3 6.4
2018-Jun-23 09:00N 51°18' E 001°39'3 6.3
2018-Jun-23 08:30N 51°15' E 001°37'3 6.2
2018-Jun-23 08:00N 51°13' E 001°34'2 4.7
2018-Jun-23 07:30N 51°11' E 001°32'3 5.3
2018-Jun-23 07:00N 51°09' E 001°30'2 4.3
2018-Jun-23 06:30N 51°08' E 001°27'2 4.6
2018-Jun-23 06:00N 51°08' E 001°23'2 3.2
2018-Jun-23 05:22N 51°07' E 001°20'1 1.3
2018-Jun-23 04:43N 51°07' E 001°19'1 0.0
2018-Jun-21 19:46N 51°07' E 001°20'1 3.0
2018-Jun-21 19:30N 51°06' E 001°20'3 5.8
2018-Jun-21 19:00N 51°03' E 001°18'22 3.2
2018-Jun-21 12:11N 50°51' E 000°49'1 4.6
2018-Jun-21 12:00N 50°50' E 000°48'2 3.5
2018-Jun-21 11:30N 50°50' E 000°45'1 1.2
2018-Jun-21 10:56N 50°49' E 000°44'1 1.5
2018-Jun-21 10:30N 50°49' E 000°43'2 3.7
2018-Jun-21 09:59N 50°48' E 000°41'2 3.1
2018-Jun-21 09:31N 50°48' E 000°38'2 4.6
2018-Jun-21 09:01N 50°47' E 000°35'3 5.3
2018-Jun-21 08:31N 50°46' E 000°31'3 5.1
2018-Jun-21 08:01N 50°45' E 000°28'2 4.6
2018-Jun-21 07:30N 50°44' E 000°24'2 4.7
2018-Jun-21 07:01N 50°43' E 000°21'3 5.0
2018-Jun-21 06:31N 50°42' E 000°17'3 4.2
2018-Jun-21 05:50N 50°42' E 000°13'2 4.7
2018-Jun-21 05:30N 50°41' E 000°10'3 5.9
2018-Jun-21 05:01N 50°40' E 000°06'20 7.2
2018-Jun-21 02:18N 50°37' W 000°24'2 8.2
2018-Jun-21 02:00N 50°38' W 000°28'4 8.0
2018-Jun-21 01:29N 50°38' W 000°35'3 6.2
2018-Jun-21 00:59N 50°39' W 000°39'4 8.0
2018-Jun-21 00:28N 50°39' W 000°46'4 7.0
2018-Jun-20 23:58N 50°41' W 000°51'3 6.1
2018-Jun-20 23:31N 50°42' W 000°55'3 4.9
2018-Jun-20 23:00N 50°43' W 000°59'2 5.1
2018-Jun-20 22:31N 50°44' W 001°02'3 5.1
2018-Jun-20 22:00N 50°45' W 001°06'3 5.1
2018-Jun-20 21:30N 50°45' W 001°10'2 4.1
2018-Jun-20 21:01N 50°46' W 001°13'2 3.5
2018-Jun-20 20:29N 50°46' W 001°16'1 2.9
2018-Jun-20 20:00N 50°46' W 001°18'1 1.0
2018-Jun-20 19:28N 50°46' W 001°18'0 0.0
2018-Jun-20 18:55N 50°46' W 001°18'0 0.0
2018-Jun-20 18:28N 50°46' W 001°18'0 0.0
2018-Jun-20 17:58N 50°46' W 001°18'0 0.0
2018-Jun-20 17:28N 50°46' W 001°18'0 0.0
2018-Jun-20 16:58N 50°46' W 001°18'0 0.0
2018-Jun-20 16:25N 50°46' W 001°18'0 0.0
2018-Jun-20 15:58N 50°46' W 001°18'0 0.0
2018-Jun-20 15:28N 50°46' W 001°18'0 0.0
2018-Jun-20 14:58N 50°46' W 001°18'0 0.0
2018-Jun-20 14:28N 50°46' W 001°18'0 0.0
2018-Jun-20 13:58N 50°46' W 001°18'0 0.0
2018-Jun-20 13:28N 50°46' W 001°18'0 0.0
2018-Jun-20 12:58N 50°46' W 001°18'0 0.0
2018-Jun-20 12:28N 50°46' W 001°18'0 0.0
2018-Jun-20 11:58N 50°46' W 001°18'0 0.0
2018-Jun-20 11:28N 50°46' W 001°18'0 0.0
2018-Jun-20 10:58N 50°46' W 001°18'0 0.0
2018-Jun-20 10:28N 50°46' W 001°18'0 0.0
2018-Jun-20 09:58N 50°46' W 001°18'0 0.0
2018-Jun-20 09:28N 50°46' W 001°18'0 0.0
2018-Jun-20 08:58N 50°46' W 001°18'0 0.0
2018-Jun-20 08:28N 50°46' W 001°18'0 0.0
2018-Jun-20 07:58N 50°46' W 001°18'0 0.0
2018-Jun-20 07:28N 50°46' W 001°18'0 0.0
2018-Jun-20 06:58N 50°46' W 001°18'0 0.0
2018-Jun-20 06:28N 50°46' W 001°18'0 0.0
2018-Jun-20 05:58N 50°46' W 001°18'0 0.0
2018-Jun-20 05:28N 50°46' W 001°18'0 0.0
2018-Jun-20 04:58N 50°46' W 001°18'0 0.0
2018-Jun-20 04:28N 50°46' W 001°18'0 0.0
2018-Jun-20 03:58N 50°46' W 001°18'0 0.0
2018-Jun-20 03:28N 50°46' W 001°18'0 0.0
2018-Jun-20 02:58N 50°46' W 001°18'0 0.0
2018-Jun-20 02:28N 50°46' W 001°18'0 0.0
2018-Jun-20 01:58N 50°46' W 001°18'0 0.0
2018-Jun-20 01:28N 50°46' W 001°18'0 0.0
2018-Jun-20 00:58N 50°46' W 001°18'0 0.0
2018-Jun-20 00:28N 50°46' W 001°18'0 0.0
2018-Jun-19 23:58N 50°46' W 001°18'0 0.0
2018-Jun-19 23:28N 50°46' W 001°18'0 0.0
2018-Jun-19 22:58N 50°46' W 001°18'0 0.0
2018-Jun-19 22:28N 50°46' W 001°18'0 0.0
2018-Jun-19 21:58N 50°46' W 001°18'0 0.0
2018-Jun-19 21:28N 50°46' W 001°18'0 0.0
2018-Jun-19 20:58N 50°46' W 001°18'0 0.0
2018-Jun-19 20:28N 50°46' W 001°18'0 0.0
2018-Jun-19 19:58N 50°46' W 001°18'  

Dump ship's entire track history